Robert Franco — WDG7687 — position and weather

sailwx.info

Track history (hours):
 
Tides and Currents Weather Stations Pressure Air Temp Water Temp Dewpoint Dewpoint Depression Visibility Wind Speed Wind Dir Waves Ship Positions

Robert Franco

Owner: Harley Marine Services, Inc, Seattle, WA. More information available from US FCC via Universal Licensing System and Coast Guard Vessel Documentation Center.

Last reported at 2017-Nov-19 19:47 UTC. Time now 2017-Nov-23 01:50 UTC.
Position N 33°44' W 118°16'.

Length 30 m; draft 5.7 m.

Type: Towing. MMSI: 367569830.

Date/timePositionNaut miles runAvg speedWind from/ knotsBaromVisibWave heightAir tempDewpointWater temp
2017-Nov-19 19:47N 33°44' W 118°16'0 0.0
2017-Nov-19 19:29N 33°44' W 118°16'3 1.2
2017-Nov-19 17:00N 33°46' W 118°13'2 4.7
2017-Nov-19 16:30N 33°44' W 118°12'0 0.2
2017-Nov-19 15:56N 33°44' W 118°12'1 0.3
2017-Nov-19 12:31N 33°45' W 118°13'1 1.2
2017-Nov-19 12:05N 33°45' W 118°13'0 0.3
2017-Nov-19 11:53N 33°45' W 118°13'3 0.6
2017-Nov-19 06:54N 33°43' W 118°16'3 7.2
2017-Nov-19 06:29N 33°45' W 118°12'0 0.1
2017-Nov-19 06:00N 33°45' W 118°12'2 0.4
2017-Nov-19 01:24N 33°43' W 118°14'0 0.9
2017-Nov-19 01:00N 33°43' W 118°14'2 3.1
2017-Nov-19 00:30N 33°44' W 118°16'0 0.8
2017-Nov-18 23:59N 33°44' W 118°15'0 0.1
2017-Nov-18 23:30N 33°44' W 118°15'0 0.0
2017-Nov-18 22:28N 33°44' W 118°15'1 1.7
2017-Nov-18 21:57N 33°44' W 118°16'0 0.5
2017-Nov-18 21:25N 33°44' W 118°17'  
2017-Nov-16 13:40N 33°45' W 118°16'1 4.2
2017-Nov-16 13:28N 33°45' W 118°17'3 1.8
2017-Nov-16 11:58N 33°43' W 118°14'2 1.5
2017-Nov-16 10:50N 33°45' W 118°12'0 0.1
2017-Nov-16 10:30N 33°45' W 118°12'3 0.5
2017-Nov-16 04:18N 33°44' W 118°16'0 0.4
2017-Nov-16 03:19N 33°44' W 118°15'2 0.4
2017-Nov-15 22:45N 33°45' W 118°17'2 0.4
2017-Nov-15 18:32N 33°44' W 118°16'0 5.0
2017-Nov-15 18:30N 33°43' W 118°16'3 4.9
2017-Nov-15 17:59N 33°45' W 118°13'2 0.7
2017-Nov-15 15:50N 33°46' W 118°13'2 3.6
2017-Nov-15 15:20N 33°46' W 118°15'1 3.7
2017-Nov-15 15:00N 33°45' W 118°17'0 0.4
2017-Nov-15 14:13N 33°46' W 118°17'0 0.4
2017-Nov-15 13:45N 33°46' W 118°16'2 4.7
2017-Nov-15 13:25N 33°44' W 118°17'3 5.2
2017-Nov-15 12:48N 33°45' W 118°13'1 0.7
2017-Nov-15 11:51N 33°46' W 118°13'3 7.6
2017-Nov-15 11:28N 33°43' W 118°14'2 0.2
2017-Nov-14 23:20N 33°44' W 118°11'4 1.0
2017-Nov-14 19:47N 33°44' W 118°16'0 0.0
2017-Nov-14 19:26N 33°44' W 118°16'3 1.7
2017-Nov-14 17:46N 33°45' W 118°12'1 1.3
2017-Nov-14 17:01N 33°45' W 118°13'2 1.2
2017-Nov-14 15:26N 33°44' W 118°12'2 0.6
2017-Nov-14 11:38N 33°45' W 118°14'2 3.1
2017-Nov-14 10:56N 33°43' W 118°14'2 0.2
2017-Nov-14 01:23N 33°45' W 118°12'0 0.5
2017-Nov-14 00:32N 33°45' W 118°13'0 6.3
2017-Nov-14 00:30N 33°44' W 118°13'0 0.8
2017-Nov-13 23:59N 33°44' W 118°12'1 2.6
2017-Nov-13 23:30N 33°45' W 118°13'0 0.1
2017-Nov-13 23:00N 33°45' W 118°13'1 1.2
2017-Nov-13 22:29N 33°46' W 118°13'3 0.1
2017-Nov-13 01:15N 33°44' W 118°15'2 1.5
2017-Nov-13 00:10N 33°45' W 118°17'3 0.3
2017-Nov-12 15:04N 33°45' W 118°13'0 0.0
2017-Nov-12 15:00N 33°45' W 118°13'0 0.0
2017-Nov-12 13:48N 33°45' W 118°13'  
Track history (hours):
 
Tides and Currents Weather Stations Pressure Air Temp Water Temp Dewpoint Dewpoint Depression Visibility Wind Speed Wind Dir Waves Ship Positions

Robert Franco

Owner: Harley Marine Services, Inc, Seattle, WA. More information available from US FCC via Universal Licensing System and Coast Guard Vessel Documentation Center.

Last reported at 2017-Nov-19 19:47 UTC. Time now 2017-Nov-23 01:50 UTC.
Position N 33°44' W 118°16'.

Length 30 m; draft 5.7 m.

Type: Towing. MMSI: 367569830.

Date/timePositionNaut miles runAvg speedWind from/ knotsBaromVisibWave heightAir tempDewpointWater temp
2017-Nov-19 19:47N 33°44' W 118°16'0 0.0
2017-Nov-19 19:29N 33°44' W 118°16'3 1.2
2017-Nov-19 17:00N 33°46' W 118°13'2 4.7
2017-Nov-19 16:30N 33°44' W 118°12'0 0.2
2017-Nov-19 15:56N 33°44' W 118°12'1 0.3
2017-Nov-19 12:31N 33°45' W 118°13'1 1.2
2017-Nov-19 12:05N 33°45' W 118°13'0 0.3
2017-Nov-19 11:53N 33°45' W 118°13'3 0.6
2017-Nov-19 06:54N 33°43' W 118°16'3 7.2
2017-Nov-19 06:29N 33°45' W 118°12'0 0.1
2017-Nov-19 06:00N 33°45' W 118°12'2 0.4
2017-Nov-19 01:24N 33°43' W 118°14'0 0.9
2017-Nov-19 01:00N 33°43' W 118°14'2 3.1
2017-Nov-19 00:30N 33°44' W 118°16'0 0.8
2017-Nov-18 23:59N 33°44' W 118°15'0 0.1
2017-Nov-18 23:30N 33°44' W 118°15'0 0.0
2017-Nov-18 22:28N 33°44' W 118°15'1 1.7
2017-Nov-18 21:57N 33°44' W 118°16'0 0.5
2017-Nov-18 21:25N 33°44' W 118°17'  
2017-Nov-16 13:40N 33°45' W 118°16'1 4.2
2017-Nov-16 13:28N 33°45' W 118°17'3 1.8
2017-Nov-16 11:58N 33°43' W 118°14'2 1.5
2017-Nov-16 10:50N 33°45' W 118°12'0 0.1
2017-Nov-16 10:30N 33°45' W 118°12'3 0.5
2017-Nov-16 04:18N 33°44' W 118°16'0 0.4
2017-Nov-16 03:19N 33°44' W 118°15'2 0.4
2017-Nov-15 22:45N 33°45' W 118°17'2 0.4
2017-Nov-15 18:32N 33°44' W 118°16'0 5.0
2017-Nov-15 18:30N 33°43' W 118°16'3 4.9
2017-Nov-15 17:59N 33°45' W 118°13'2 0.7
2017-Nov-15 15:50N 33°46' W 118°13'2 3.6
2017-Nov-15 15:20N 33°46' W 118°15'1 3.7
2017-Nov-15 15:00N 33°45' W 118°17'0 0.4
2017-Nov-15 14:13N 33°46' W 118°17'0 0.4
2017-Nov-15 13:45N 33°46' W 118°16'2 4.7
2017-Nov-15 13:25N 33°44' W 118°17'3 5.2
2017-Nov-15 12:48N 33°45' W 118°13'1 0.7
2017-Nov-15 11:51N 33°46' W 118°13'3 7.6
2017-Nov-15 11:28N 33°43' W 118°14'2 0.2
2017-Nov-14 23:20N 33°44' W 118°11'4 1.0
2017-Nov-14 19:47N 33°44' W 118°16'0 0.0
2017-Nov-14 19:26N 33°44' W 118°16'3 1.7
2017-Nov-14 17:46N 33°45' W 118°12'1 1.3
2017-Nov-14 17:01N 33°45' W 118°13'2 1.2
2017-Nov-14 15:26N 33°44' W 118°12'2 0.6
2017-Nov-14 11:38N 33°45' W 118°14'2 3.1
2017-Nov-14 10:56N 33°43' W 118°14'2 0.2
2017-Nov-14 01:23N 33°45' W 118°12'0 0.5
2017-Nov-14 00:32N 33°45' W 118°13'0 6.3
2017-Nov-14 00:30N 33°44' W 118°13'0 0.8
2017-Nov-13 23:59N 33°44' W 118°12'1 2.6
2017-Nov-13 23:30N 33°45' W 118°13'0 0.1
2017-Nov-13 23:00N 33°45' W 118°13'1 1.2
2017-Nov-13 22:29N 33°46' W 118°13'3 0.1
2017-Nov-13 01:15N 33°44' W 118°15'2 1.5
2017-Nov-13 00:10N 33°45' W 118°17'3 0.3
2017-Nov-12 15:04N 33°45' W 118°13'0 0.0
2017-Nov-12 15:00N 33°45' W 118°13'0 0.0
2017-Nov-12 13:48N 33°45' W 118°13'  

Dump ship's entire track history